Time;durP1;ratioP1;P1;durP2;ratioP2;P2;SDS_P1;SDS_P2;PMS_P1;PMS_P2;Temp;Humidity;BMP_temperature;BMP_pressure;BME280_temperature;BME280_humidity;BME280_pressure;Samples;Min_cycle;Max_cycle;Signal;HPM_P1;HPM_P2
2021/12/06 00:00:37;;;;;;;22.40;13.52;;;3.60;99.90;;;;;;5009086;28;20044;-87
2021/12/06 00:03:07;;;;;;;20.02;11.55;;;3.60;99.90;;;;;;5009083;28;20072;-87
2021/12/06 00:05:33;;;;;;;21.02;11.95;;;3.60;99.90;;;;;;4992492;28;20038;-87
2021/12/06 00:08:19;;;;;;;20.13;11.63;;;3.60;99.90;;;;;;5008818;28;20076;-86
2021/12/06 00:10:49;;;;;;;20.10;11.15;;;3.60;99.90;;;;;;4965089;29;20126;-87
2021/12/06 00:13:15;;;;;;;;;;;3.50;99.90;;;;;;4950068;29;20109;-86
2021/12/06 00:15:43;;;;;;;16.25;10.25;;;3.60;99.90;;;;;;4965338;28;19918;-87
2021/12/06 00:18:09;;;;;;;23.95;11.85;;;3.60;99.90;;;;;;4962294;28;20036;-87
2021/12/06 00:20:34;;;;;;;20.25;13.05;;;3.60;99.90;;;;;;4914590;29;20035;-87
2021/12/06 00:23:00;;;;;;;20.65;11.52;;;3.60;99.90;;;;;;4945530;29;20042;-87
2021/12/06 00:25:26;;;;;;;20.95;13.10;;;3.60;99.90;;;;;;4949184;29;20035;-87
2021/12/06 00:27:51;;;;;;;20.27;12.18;;;3.60;99.90;;;;;;4965514;29;20106;-87
2021/12/06 00:30:17;;;;;;;19.42;10.82;;;3.60;99.90;;;;;;4965270;29;20062;-87
2021/12/06 00:32:45;;;;;;;18.60;10.65;;;3.60;99.90;;;;;;4965483;29;20031;-86
2021/12/06 00:35:17;;;;;;;23.73;13.25;;;3.60;99.90;;;;;;4965189;29;20059;-87
2021/12/06 00:37:53;;;;;;;21.65;12.93;;;3.60;99.90;;;;;;4968530;28;20058;-86
2021/12/06 00:40:19;;;;;;;29.38;15.88;;;3.60;99.90;;;;;;4971855;28;20035;-87
2021/12/06 00:42:44;;;;;;;22.75;11.77;;;3.60;99.90;;;;;;4971710;28;20107;-87
2021/12/06 00:45:10;;;;;;;26.63;13.98;;;3.70;99.90;;;;;;4955236;29;20058;-87
2021/12/06 00:47:36;;;;;;;24.38;13.80;;;3.60;99.90;;;;;;4991570;28;20034;-88
2021/12/06 00:50:05;;;;;;;23.10;12.15;;;3.70;99.90;;;;;;5015012;28;20033;-87
2021/12/06 00:52:31;;;;;;;21.88;13.40;;;3.60;99.90;;;;;;5014940;28;20038;-88
2021/12/06 00:54:57;;;;;;;25.20;12.32;;;3.60;99.90;;;;;;5014447;28;20081;-87
2021/12/06 00:57:22;;;;;;;24.20;13.48;;;3.60;99.90;;;;;;5014993;28;20026;-88
2021/12/06 00:59:49;;;;;;;22.70;12.10;;;3.60;99.90;;;;;;5015224;28;20026;-87
2021/12/06 01:02:16;;;;;;;24.85;12.50;;;3.60;99.90;;;;;;4998357;28;20041;-87
2021/12/06 01:04:44;;;;;;;24.05;13.15;;;3.70;99.90;;;;;;5014826;28;20061;-87
2021/12/06 01:07:11;;;;;;;25.08;13.35;;;3.70;99.90;;;;;;4998329;28;20060;-88
2021/12/06 01:09:36;;;;;;;24.05;13.18;;;3.60;99.90;;;;;;5014291;28;20049;-87
2021/12/06 01:12:03;;;;;;;19.45;12.18;;;3.60;99.90;;;;;;4998292;28;20125;-87
2021/12/06 01:14:29;;;;;;;24.27;13.13;;;3.70;99.90;;;;;;5014649;28;20045;-87
2021/12/06 01:16:54;;;;;;;27.73;14.15;;;3.70;99.90;;;;;;5014727;28;20037;-88
2021/12/06 01:19:27;;;;;;;24.55;13.00;;;3.70;99.90;;;;;;4985453;28;20241;-87
2021/12/06 01:25:04;;;;;;;26.70;12.98;;;3.70;99.90;;;;;;5014392;28;20041;-86
2021/12/06 01:30:20;;;;;;;29.88;14.30;;;3.60;99.90;;;;;;5031016;28;20084;-87
2021/12/06 01:33:04;;;;;;;23.33;12.73;;;3.70;99.90;;;;;;4998452;28;20037;-87
2021/12/06 01:40:59;;;;;;;27.38;13.57;;;3.70;99.90;;;;;;5030750;28;20038;-89
2021/12/06 01:43:25;;;;;;;28.58;14.38;;;3.60;99.90;;;;;;4998344;28;20029;-88
2021/12/06 01:45:51;;;;;;;27.17;13.30;;;3.70;99.90;;;;;;4997731;28;20056;-88
2021/12/06 01:48:17;;;;;;;29.05;14.45;;;3.70;99.90;;;;;;5013703;28;20026;-87
2021/12/06 01:50:43;;;;;;;33.53;14.88;;;3.70;99.90;;;;;;5010935;28;20026;-87
2021/12/06 01:53:08;;;;;;;31.27;15.52;;;3.70;99.90;;;;;;5011330;28;20124;-87
2021/12/06 01:55:37;;;;;;;30.77;14.48;;;3.70;99.90;;;;;;4994801;28;20064;-87
2021/12/06 01:58:05;;;;;;;27.98;15.52;;;3.70;99.90;;;;;;4994932;28;20438;-86
2021/12/06 02:00:47;;;;;;;27.17;13.40;;;3.70;99.90;;;;;;4994954;28;20034;-87
2021/12/06 02:03:19;;;;;;;30.38;15.10;;;3.70;99.90;;;;;;5011270;28;20033;-87
2021/12/06 02:05:48;;;;;;;30.45;14.32;;;3.70;99.90;;;;;;4994920;28;20093;-87
2021/12/06 02:08:17;;;;;;;29.35;14.98;;;3.60;99.90;;;;;;4995326;28;20483;-88
2021/12/06 02:10:44;;;;;;;35.33;17.08;;;3.70;99.90;;;;;;4994561;28;20068;-87
2021/12/06 02:13:15;;;;;;;31.80;16.17;;;3.60;99.90;;;;;;4995681;28;20079;-87
2021/12/06 02:15:46;;;;;;;34.30;15.48;;;3.70;99.90;;;;;;4994464;28;20132;-88
2021/12/06 02:18:29;;;;;;;36.30;17.23;;;3.70;99.90;;;;;;5006935;28;20030;-89
2021/12/06 02:21:03;;;;;;;34.25;16.63;;;3.70;99.90;;;;;;4991329;28;20035;-87
2021/12/06 02:23:30;;;;;;;32.85;16.02;;;3.60;99.90;;;;;;5010886;28;20247;-87
2021/12/06 02:25:56;;;;;;;31.45;16.00;;;3.60;99.90;;;;;;5010829;28;20052;-87
2021/12/06 02:28:22;;;;;;;30.98;15.95;;;3.60;99.90;;;;;;5010722;28;20030;-87
2021/12/06 02:30:48;;;;;;;36.05;17.55;;;3.60;99.90;;;;;;4994489;28;20040;-87
2021/12/06 02:33:14;;;;;;;32.55;15.43;;;3.60;99.90;;;;;;4994425;28;20034;-87
2021/12/06 02:35:39;;;;;;;36.15;16.65;;;3.60;99.90;;;;;;5010394;28;20109;-88
2021/12/06 02:38:07;;;;;;;33.83;16.05;;;3.60;99.90;;;;;;5010398;28;20088;-87
2021/12/06 02:40:38;;;;;;;30.38;15.40;;;3.60;99.90;;;;;;5010707;28;20505;-88
2021/12/06 02:43:06;;;;;;;35.28;16.20;;;3.60;99.90;;;;;;5010591;28;20116;-89
2021/12/06 02:45:32;;;;;;;34.35;14.93;;;3.70;99.90;;;;;;4994326;28;20057;-87
2021/12/06 02:48:01;;;;;;;39.78;17.88;;;3.70;99.90;;;;;;5011668;28;20061;-88
2021/12/06 02:50:36;;;;;;;32.88;16.17;;;3.70;99.90;;;;;;5012555;28;20029;-88
2021/12/06 02:53:03;;;;;;;36.97;17.33;;;3.70;99.90;;;;;;5011580;28;20094;-87
2021/12/06 02:55:33;;;;;;;32.03;16.70;;;3.70;99.90;;;;;;5027770;28;20045;-87
2021/12/06 02:58:13;;;;;;;30.52;15.30;;;3.70;99.90;;;;;;5010167;28;20026;-87
2021/12/06 03:00:42;;;;;;;29.95;14.98;;;3.70;99.90;;;;;;5009033;28;20041;-87
2021/12/06 03:03:08;;;;;;;33.03;16.42;;;3.70;99.90;;;;;;5010232;28;20030;-87
2021/12/06 03:05:34;;;;;;;36.17;16.67;;;3.70;99.90;;;;;;5027592;28;20061;-87
2021/12/06 03:08:33;;;;;;;36.60;16.63;;;3.60;99.90;;;;;;5026065;28;20041;-87
2021/12/06 03:10:59;;;;;;;32.73;15.63;;;3.60;99.90;;;;;;4966509;29;20102;-87
2021/12/06 03:13:24;;;;;;;28.70;15.32;;;3.70;99.90;;;;;;4950461;29;20043;-87
2021/12/06 03:15:50;;;;;;;37.60;16.88;;;3.70;99.90;;;;;;4966342;28;20070;-87
2021/12/06 03:18:16;;;;;;;38.13;16.83;;;3.70;99.90;;;;;;4943014;29;20032;-87
2021/12/06 03:20:43;;;;;;;29.88;15.57;;;3.60;99.90;;;;;;4928350;29;20032;-88
2021/12/06 03:23:09;;;;;;;35.17;15.65;;;3.70;99.90;;;;;;4943699;29;20035;-87
2021/12/06 03:25:35;;;;;;;35.53;16.48;;;3.60;99.90;;;;;;4950432;29;20028;-87
2021/12/06 03:28:01;;;;;;;35.95;16.20;;;3.60;99.90;;;;;;4966072;29;20162;-87
2021/12/06 03:30:27;;;;;;;36.67;17.77;;;3.60;99.90;;;;;;4966777;28;20031;-88
2021/12/06 03:32:52;;;;;;;37.17;16.65;;;3.60;99.90;;;;;;4966111;29;20074;-87
2021/12/06 03:35:19;;;;;;;30.63;15.05;;;3.60;99.90;;;;;;4950114;29;20081;-87
2021/12/06 03:37:45;;;;;;;38.65;16.92;;;3.60;99.90;;;;;;4934182;29;20711;-87
2021/12/06 03:40:12;;;;;;;33.40;15.80;;;3.60;99.90;;;;;;4950125;29;20055;-87
2021/12/06 03:42:39;;;;;;;31.77;14.82;;;3.60;99.90;;;;;;4966169;29;20031;-87
2021/12/06 03:45:07;;;;;;;41.47;18.85;;;3.50;99.90;;;;;;4965985;29;20050;-87
2021/12/06 03:47:33;;;;;;;36.30;17.55;;;3.50;99.90;;;;;;4972410;28;20072;-86
2021/12/06 03:50:02;;;;;;;37.13;17.08;;;3.50;99.90;;;;;;5009494;28;20494;-87
2021/12/06 03:52:29;;;;;;;34.40;15.82;;;3.50;99.90;;;;;;5025386;28;20029;-87
2021/12/06 03:54:59;;;;;;;34.78;17.17;;;3.50;99.90;;;;;;5008904;28;20034;-87
2021/12/06 03:57:25;;;;;;;35.80;17.05;;;3.50;99.90;;;;;;4992962;28;20037;-87
2021/12/06 03:59:52;;;;;;;34.15;16.98;;;3.40;99.90;;;;;;4992734;28;20449;-86
2021/12/06 04:02:22;;;;;;;35.13;16.23;;;3.50;99.90;;;;;;5009068;28;20402;-87
2021/12/06 04:04:48;;;;;;;38.03;16.70;;;3.50;99.90;;;;;;5008904;28;20083;-87
2021/12/06 04:07:14;;;;;;;35.67;16.98;;;3.50;99.90;;;;;;5008771;28;20465;-87
2021/12/06 04:09:42;;;;;;;38.13;16.60;;;3.40;99.90;;;;;;5026079;28;20073;-87
2021/12/06 04:12:10;;;;;;;34.38;15.45;;;3.50;99.90;;;;;;5008800;28;20029;-87
2021/12/06 04:14:38;;;;;;;36.72;16.52;;;3.40;99.90;;;;;;5008776;28;20034;-87
2021/12/06 04:17:04;;;;;;;34.35;15.70;;;3.40;99.90;;;;;;4992590;28;20084;-87
2021/12/06 04:19:31;;;;;;;39.92;17.38;;;3.40;99.90;;;;;;4994460;28;20061;-87
2021/12/06 04:21:57;;;;;;;33.90;15.43;;;3.40;99.90;;;;;;4996130;28;20030;-88
2021/12/06 04:24:23;;;;;;;38.38;16.23;;;3.50;99.90;;;;;;5008558;28;20036;-86
2021/12/06 04:26:50;;;;;;;35.83;16.15;;;3.50;99.90;;;;;;4992661;28;20057;-88
2021/12/06 04:29:17;;;;;;;41.28;16.83;;;3.50;99.90;;;;;;5008704;28;20482;-87
2021/12/06 04:31:48;;;;;;;41.42;17.73;;;3.50;99.90;;;;;;4992963;28;20034;-87
2021/12/06 04:34:16;;;;;;;40.22;17.50;;;3.50;99.90;;;;;;5008854;28;20264;-87
2021/12/06 04:36:44;;;;;;;44.90;18.30;;;3.40;99.90;;;;;;5009004;28;20547;-89
2021/12/06 04:39:14;;;;;;;34.83;16.52;;;3.40;99.90;;;;;;5008469;28;20022;-89
2021/12/06 04:41:41;;;;;;;36.97;16.98;;;3.40;99.90;;;;;;5024964;28;20060;-89
2021/12/06 04:44:07;;;;;;;36.47;15.93;;;3.40;99.90;;;;;;5008591;28;20030;-89
2021/12/06 04:46:33;;;;;;;41.85;18.13;;;3.40;99.90;;;;;;5008796;28;20040;-88
2021/12/06 04:49:00;;;;;;;44.85;17.63;;;3.40;99.90;;;;;;5008653;28;20482;-88
2021/12/06 04:51:26;;;;;;;44.45;18.10;;;3.40;99.90;;;;;;5008950;28;20033;-88
2021/12/06 04:53:52;;;;;;;40.08;18.63;;;3.40;99.90;;;;;;5009798;28;20068;-88
2021/12/06 04:56:32;;;;;;;41.67;19.42;;;3.50;99.90;;;;;;5008770;28;20046;-88
2021/12/06 04:59:06;;;;;;;40.72;16.75;;;3.40;99.90;;;;;;5008572;28;20113;-89
2021/12/06 05:01:33;;;;;;;43.45;17.15;;;3.40;99.90;;;;;;5008266;28;20466;-89
2021/12/06 05:04:05;;;;;;;40.40;16.77;;;3.40;99.90;;;;;;5008337;28;20022;-89
2021/12/06 05:06:33;;;;;;;39.97;17.83;;;3.50;99.90;;;;;;4992494;28;20044;-89
2021/12/06 05:09:07;;;;;;;42.20;17.95;;;3.40;99.90;;;;;;4991759;28;20061;-88
2021/12/06 05:11:33;;;;;;;36.00;16.58;;;3.40;99.90;;;;;;4992073;28;20065;-88
2021/12/06 05:14:02;;;;;;;42.63;18.30;;;3.40;99.90;;;;;;5008045;28;20030;-89
2021/12/06 05:16:29;;;;;;;43.33;18.50;;;3.40;99.90;;;;;;5008257;28;20026;-88
2021/12/06 05:18:55;;;;;;;40.35;16.33;;;3.40;99.90;;;;;;4982386;28;20027;-88
2021/12/06 05:21:21;;;;;;;44.55;17.95;;;3.40;99.90;;;;;;4988310;28;20494;-89
2021/12/06 05:23:48;;;;;;;45.75;19.00;;;3.40;99.90;;;;;;4972181;28;20059;-89
2021/12/06 05:26:14;;;;;;;43.85;19.02;;;3.40;99.90;;;;;;4976212;28;20031;-89
2021/12/06 05:28:43;;;;;;;40.78;17.02;;;3.30;99.90;;;;;;4976058;28;20038;-88
2021/12/06 05:31:15;;;;;;;47.83;19.33;;;3.40;99.90;;;;;;4976142;28;20030;-89
2021/12/06 05:33:50;;;;;;;47.17;17.42;;;3.40;99.90;;;;;;4975795;28;20038;-90
2021/12/06 05:36:16;;;;;;;46.88;18.55;;;3.40;99.90;;;;;;4975776;28;20042;-89
2021/12/06 05:38:43;;;;;;;39.72;16.42;;;3.40;99.90;;;;;;4991745;28;20037;-88
2021/12/06 05:41:09;;;;;;;44.65;16.80;;;3.40;99.90;;;;;;4975677;28;20068;-89
2021/12/06 05:43:34;;;;;;;46.30;18.45;;;3.40;99.90;;;;;;4975816;28;20034;-89
2021/12/06 05:46:00;;;;;;;47.28;18.88;;;3.40;99.90;;;;;;4991642;28;20034;-88
2021/12/06 05:48:27;;;;;;;50.67;20.38;;;3.50;99.90;;;;;;4975881;28;20035;-89
2021/12/06 05:50:53;;;;;;;50.30;21.13;;;3.40;99.90;;;;;;5009081;28;20022;-89
2021/12/06 05:53:19;;;;;;;50.58;22.25;;;3.50;99.90;;;;;;4975807;28;20102;-89
2021/12/06 05:55:46;;;;;;;52.28;21.40;;;3.50;99.90;;;;;;4975623;28;20046;-87
2021/12/06 05:58:13;;;;;;;48.60;22.05;;;3.50;99.90;;;;;;4991734;28;20137;-88
2021/12/06 06:00:38;;;;;;;55.17;21.65;;;3.40;99.90;;;;;;4975508;28;20038;-91
2021/12/06 06:03:06;;;;;;;47.10;21.77;;;3.40;99.90;;;;;;4975521;28;20121;-89
2021/12/06 06:05:34;;;;;;;47.72;20.63;;;3.40;99.90;;;;;;4975511;28;20030;-88
2021/12/06 06:08:20;;;;;;;39.88;18.13;;;3.40;99.90;;;;;;4975125;28;20042;-87
2021/12/06 06:10:47;;;;;;;45.63;19.30;;;3.40;99.90;;;;;;4897869;29;20071;-89
2021/12/06 06:13:13;;;;;;;40.13;17.25;;;3.40;99.90;;;;;;4927518;29;20459;-88
2021/12/06 06:15:39;;;;;;;43.35;18.83;;;3.40;99.90;;;;;;4895143;29;20056;-88
2021/12/06 06:18:06;;;;;;;49.05;21.30;;;3.40;99.90;;;;;;4894970;29;20029;-89
2021/12/06 06:20:53;;;;;;;45.97;20.10;;;3.30;99.90;;;;;;4910453;29;20038;-88
2021/12/06 06:23:19;;;;;;;43.45;19.73;;;3.30;99.90;;;;;;4912093;29;20036;-89
2021/12/06 06:25:45;;;;;;;45.05;18.38;;;3.30;99.90;;;;;;4929290;29;20032;-89
2021/12/06 06:28:11;;;;;;;39.58;18.60;;;3.30;99.90;;;;;;4929168;29;20494;-88
2021/12/06 06:30:55;;;;;;;43.70;18.88;;;3.30;99.90;;;;;;4929510;29;20036;-89
2021/12/06 06:33:21;;;;;;;41.22;18.85;;;3.30;99.90;;;;;;4929343;29;20044;-87
2021/12/06 06:35:47;;;;;;;39.53;17.27;;;3.30;99.90;;;;;;4929788;29;20051;-88
2021/12/06 06:38:14;;;;;;;44.78;18.15;;;3.30;99.90;;;;;;4926148;29;20028;-88
2021/12/06 06:40:41;;;;;;;40.15;17.85;;;3.30;99.90;;;;;;4919742;29;20063;-87
2021/12/06 06:43:06;;;;;;;37.55;16.38;;;3.30;99.90;;;;;;4895221;29;20032;-88
2021/12/06 06:45:32;;;;;;;34.05;15.13;;;3.30;99.90;;;;;;4894964;29;20040;-87
2021/12/06 06:47:58;;;;;;;32.28;15.98;;;3.20;99.90;;;;;;4941126;28;20049;-87
2021/12/06 06:50:25;;;;;;;40.83;17.80;;;3.20;99.90;;;;;;4991519;28;20066;-87
2021/12/06 06:52:52;;;;;;;38.22;16.27;;;3.20;99.90;;;;;;4975387;28;20030;-87
2021/12/06 06:55:17;;;;;;;31.88;16.02;;;3.20;99.90;;;;;;4991425;28;20042;-88
2021/12/06 06:57:44;;;;;;;36.35;16.08;;;3.10;99.90;;;;;;4990436;28;20029;-87
2021/12/06 07:00:18;;;;;;;30.83;15.25;;;3.00;99.90;;;;;;4991001;28;20027;-86
2021/12/06 07:02:44;;;;;;;30.92;13.27;;;3.10;99.90;;;;;;4974276;28;20038;-87
2021/12/06 07:05:10;;;;;;;29.92;14.57;;;3.10;99.90;;;;;;4990523;28;20097;-87
2021/12/06 07:07:37;;;;;;;29.50;14.50;;;3.00;99.90;;;;;;4989917;28;20035;-87
2021/12/06 07:10:04;;;;;;;27.58;13.35;;;3.00;99.90;;;;;;4970031;28;20117;-87
2021/12/06 07:12:31;;;;;;;32.03;14.80;;;3.00;99.90;;;;;;4970383;28;20035;-87
2021/12/06 07:14:56;;;;;;;26.45;11.88;;;2.90;99.90;;;;;;4987215;28;20078;-87
2021/12/06 07:17:22;;;;;;;28.58;12.52;;;2.90;99.90;;;;;;4970905;28;20034;-86
2021/12/06 07:19:48;;;;;;;26.58;12.50;;;2.90;99.90;;;;;;4954441;28;20034;-87
2021/12/06 07:22:14;;;;;;;31.67;14.40;;;2.80;99.90;;;;;;5002002;28;20423;-87
2021/12/06 07:24:40;;;;;;;31.75;15.45;;;2.90;99.90;;;;;;4990890;28;20030;-89
2021/12/06 07:27:06;;;;;;;27.83;14.32;;;2.80;99.90;;;;;;4990794;28;20034;-88
2021/12/06 07:29:33;;;;;;;21.88;11.45;;;2.90;99.90;;;;;;4990850;28;20316;-87
2021/12/06 07:32:00;;;;;;;29.23;14.13;;;2.90;99.90;;;;;;4990093;28;20093;-85
2021/12/06 07:34:26;;;;;;;25.60;13.68;;;2.90;99.90;;;;;;4989601;28;20497;-85
2021/12/06 07:36:52;;;;;;;25.67;12.45;;;2.90;99.90;;;;;;4988597;28;20030;-85
2021/12/06 07:39:18;;;;;;;27.85;13.75;;;2.90;99.90;;;;;;4959080;28;20054;-87
2021/12/06 07:41:44;;;;;;;27.02;13.82;;;2.90;99.90;;;;;;4985810;28;20125;-86
2021/12/06 07:44:09;;;;;;;27.02;14.10;;;2.90;99.90;;;;;;4971184;28;20058;-86
2021/12/06 07:46:35;;;;;;;27.17;13.63;;;2.90;99.90;;;;;;4970923;28;20051;-87
2021/12/06 07:49:02;;;;;;;31.50;15.82;;;2.90;99.90;;;;;;4987505;28;20065;-87
2021/12/06 07:51:28;;;;;;;26.52;15.02;;;2.80;99.90;;;;;;4970521;28;20318;-86
2021/12/06 07:53:55;;;;;;;23.42;13.15;;;2.80;99.90;;;;;;4970031;28;20031;-87
2021/12/06 07:56:22;;;;;;;26.92;14.02;;;2.80;99.90;;;;;;4969913;28;20039;-86
2021/12/06 07:58:48;;;;;;;26.40;13.65;;;2.80;99.90;;;;;;4985953;28;20054;-87
2021/12/06 08:01:15;;;;;;;28.65;14.18;;;2.80;99.90;;;;;;4970035;28;20103;-86
2021/12/06 08:03:42;;;;;;;23.15;12.23;;;2.80;99.90;;;;;;4969421;28;20034;-86
2021/12/06 08:06:09;;;;;;;21.52;12.82;;;2.80;99.90;;;;;;4985300;28;20031;-87
2021/12/06 08:08:37;;;;;;;25.63;12.65;;;2.80;99.90;;;;;;4985674;28;20034;-86
2021/12/06 08:11:08;;;;;;;22.48;10.40;;;2.80;99.90;;;;;;4969185;28;20051;-87
2021/12/06 08:13:35;;;;;;;28.52;15.68;;;2.80;99.90;;;;;;4968745;28;20030;-87
2021/12/06 08:16:06;;;;;;;26.10;13.15;;;2.80;99.90;;;;;;4969208;28;20046;-86
2021/12/06 08:18:32;;;;;;;22.88;12.73;;;2.70;99.90;;;;;;4965928;29;20035;-88
2021/12/06 08:20:58;;;;;;;25.08;13.02;;;2.70;99.90;;;;;;4949767;29;20115;-87
2021/12/06 08:23:24;;;;;;;27.83;13.82;;;2.70;99.90;;;;;;4986502;28;20062;-87
2021/12/06 08:25:51;;;;;;;25.23;13.43;;;2.70;99.90;;;;;;4988312;28;20037;-86
2021/12/06 08:28:18;;;;;;;25.92;13.98;;;2.70;99.90;;;;;;4988146;28;20061;-86
2021/12/06 08:30:44;;;;;;;29.58;15.70;;;2.70;99.90;;;;;;4988377;28;20073;-87
2021/12/06 08:33:10;;;;;;;29.08;14.48;;;2.70;99.90;;;;;;4988093;28;20446;-86
2021/12/06 08:35:40;;;;;;;25.20;13.05;;;2.70;99.90;;;;;;5004290;28;20076;-86
2021/12/06 08:38:07;;;;;;;25.20;13.63;;;2.80;99.90;;;;;;4987868;28;20053;-87
2021/12/06 08:40:33;;;;;;;32.15;14.48;;;2.60;99.90;;;;;;4987976;28;20042;-84
2021/12/06 08:42:59;;;;;;;29.15;14.65;;;2.60;99.90;;;;;;4987836;28;20034;-84
2021/12/06 08:45:27;;;;;;;28.52;15.85;;;2.60;99.90;;;;;;4988011;28;20038;-85
2021/12/06 08:47:53;;;;;;;30.75;16.08;;;2.50;99.90;;;;;;5004279;28;20040;-86
2021/12/06 08:50:22;;;;;;;32.45;17.45;;;2.50;99.90;;;;;;5005502;28;20027;-85
2021/12/06 08:52:49;;;;;;;30.13;15.80;;;2.50;99.90;;;;;;4988305;28;20034;-84
2021/12/06 08:55:16;;;;;;;23.27;12.40;;;2.60;99.90;;;;;;4988061;28;20042;-85
2021/12/06 08:57:42;;;;;;;29.77;15.40;;;2.60;99.90;;;;;;5004063;28;20050;-85
2021/12/06 09:00:13;;;;;;;28.08;14.05;;;2.50;99.90;;;;;;4992068;28;20057;-86
2021/12/06 09:02:39;;;;;;;28.60;14.05;;;2.50;99.90;;;;;;4992106;28;20026;-84
2021/12/06 09:05:07;;;;;;;26.05;13.18;;;2.60;99.90;;;;;;4991837;28;20458;-85
2021/12/06 09:07:33;;;;;;;31.25;15.25;;;2.60;99.90;;;;;;4991722;28;20026;-85
2021/12/06 09:09:59;;;;;;;32.25;17.30;;;2.50;99.90;;;;;;5032243;23;20467;-84
2021/12/06 09:12:28;;;;;;;31.60;16.52;;;2.40;99.90;;;;;;4995333;28;20069;-86
2021/12/06 09:14:55;;;;;;;35.45;16.50;;;2.50;99.90;;;;;;4995207;28;20037;-84
2021/12/06 09:17:22;;;;;;;29.55;14.75;;;2.60;99.90;;;;;;5011723;28;20045;-85
2021/12/06 09:19:48;;;;;;;32.17;16.60;;;2.60;99.90;;;;;;5024811;28;20193;-85
2021/12/06 09:22:14;;;;;;;36.67;16.77;;;2.60;99.90;;;;;;5020671;28;20041;-87
2021/12/06 09:24:40;;;;;;;32.50;17.52;;;2.70;99.90;;;;;;5031088;28;20180;-85
2021/12/06 09:27:07;;;;;;;30.77;14.80;;;2.60;99.90;;;;;;5030724;28;20025;-85
2021/12/06 09:29:36;;;;;;;34.55;18.33;;;2.70;99.90;;;;;;5031093;28;20033;-85
2021/12/06 09:32:04;;;;;;;36.80;17.92;;;2.60;99.90;;;;;;5047525;28;20038;-85
2021/12/06 09:34:31;;;;;;;37.75;19.67;;;2.60;99.90;;;;;;5030808;28;20052;-85
2021/12/06 09:36:58;;;;;;;36.65;16.95;;;2.60;99.90;;;;;;5014428;28;20048;-85
2021/12/06 09:39:24;;;;;;;33.70;17.00;;;2.60;99.90;;;;;;5030620;28;20038;-85
2021/12/06 09:41:51;;;;;;;37.97;18.55;;;2.60;99.90;;;;;;5030693;28;20032;-85
2021/12/06 09:44:17;;;;;;;35.13;17.27;;;2.60;99.90;;;;;;5030567;28;20033;-84
2021/12/06 09:46:43;;;;;;;39.22;19.38;;;2.60;99.90;;;;;;5014211;28;20038;-85
2021/12/06 09:49:12;;;;;;;40.80;19.80;;;2.60;99.90;;;;;;5030399;28;20064;-85
2021/12/06 09:51:39;;;;;;;45.00;20.95;;;2.60;99.90;;;;;;5013722;28;20021;-85
2021/12/06 09:54:07;;;;;;;43.55;19.10;;;2.50;99.90;;;;;;5013683;28;20137;-85
2021/12/06 09:56:43;;;;;;;42.78;20.25;;;2.50;99.90;;;;;;5013691;28;20040;-84
2021/12/06 09:59:12;;;;;;;51.13;21.08;;;2.50;99.90;;;;;;5029998;28;20055;-84
2021/12/06 10:01:50;;;;;;;41.17;19.13;;;2.40;99.90;;;;;;5013712;28;20029;-84
2021/12/06 10:04:18;;;;;;;44.95;18.77;;;2.50;99.90;;;;;;5013632;28;20021;-84
2021/12/06 10:06:45;;;;;;;42.17;18.88;;;2.60;99.90;;;;;;5013720;28;20052;-84
2021/12/06 10:09:11;;;;;;;39.80;19.25;;;2.60;99.90;;;;;;5029366;28;20045;-85
2021/12/06 10:11:37;;;;;;;41.75;18.75;;;2.50;99.90;;;;;;5012611;28;20442;-85
2021/12/06 10:14:04;;;;;;;34.45;17.17;;;2.70;99.90;;;;;;5029651;28;20041;-85
2021/12/06 10:16:30;;;;;;;39.85;17.58;;;2.70;99.90;;;;;;5013344;28;20095;-85
2021/12/06 10:18:56;;;;;;;37.53;17.83;;;2.70;99.90;;;;;;5003440;28;20100;-87
2021/12/06 10:21:27;;;;;;;43.20;19.10;;;2.70;99.90;;;;;;4995875;28;20030;-84
2021/12/06 10:23:55;;;;;;;36.90;17.77;;;2.70;99.90;;;;;;5013139;28;20466;-86
2021/12/06 10:26:24;;;;;;;43.78;18.80;;;2.70;99.90;;;;;;5029467;28;20037;-85
2021/12/06 10:28:55;;;;;;;38.00;18.30;;;2.70;99.90;;;;;;5013273;28;20029;-84
2021/12/06 10:31:21;;;;;;;28.52;12.30;;;2.70;99.90;;;;;;5029462;28;20034;-86
2021/12/06 10:33:48;;;;;;;41.42;18.77;;;2.80;99.90;;;;;;5029283;28;20132;-84
2021/12/06 10:36:17;;;;;;;31.95;15.77;;;2.70;99.90;;;;;;5029488;28;20057;-85
2021/12/06 10:38:53;;;;;;;37.92;17.63;;;2.70;99.90;;;;;;5029234;28;20033;-84
2021/12/06 10:41:25;;;;;;;42.53;19.58;;;2.70;99.90;;;;;;5029227;28;20029;-85
2021/12/06 10:44:00;;;;;;;35.65;16.27;;;2.60;99.90;;;;;;5012997;28;20055;-84
2021/12/06 10:46:28;;;;;;;37.83;15.88;;;2.80;99.90;;;;;;5013088;28;20069;-85
2021/12/06 10:48:57;;;;;;;35.47;15.90;;;2.70;99.90;;;;;;5029283;28;20174;-85
2021/12/06 10:51:23;;;;;;;34.88;15.95;;;2.80;99.90;;;;;;5029189;28;20441;-84
2021/12/06 10:53:59;;;;;;;30.77;15.23;;;2.80;99.90;;;;;;5028864;28;20051;-85
2021/12/06 10:56:36;;;;;;;35.50;16.15;;;2.80;99.90;;;;;;5028866;28;20084;-84
2021/12/06 10:59:05;;;;;;;35.40;16.00;;;2.80;99.90;;;;;;5029566;28;20040;-84
2021/12/06 11:01:32;;;;;;;34.13;16.98;;;2.80;99.90;;;;;;5030185;28;20048;-85
2021/12/06 11:04:04;;;;;;;31.08;15.50;;;2.90;99.90;;;;;;5028725;28;20030;-85
2021/12/06 11:06:42;;;;;;;36.95;16.48;;;2.90;99.90;;;;;;5012652;28;20033;-85
2021/12/06 11:09:15;;;;;;;37.35;16.55;;;2.80;99.90;;;;;;5028154;28;20185;-85
2021/12/06 11:11:43;;;;;;;32.33;15.75;;;2.90;99.90;;;;;;5028340;28;20034;-84
2021/12/06 11:14:13;;;;;;;38.38;17.55;;;2.90;99.90;;;;;;5028329;28;20044;-84
2021/12/06 11:16:42;;;;;;;32.75;15.20;;;2.90;99.90;;;;;;5028518;28;20466;-84
2021/12/06 11:19:20;;;;;;;31.83;15.45;;;2.80;99.90;;;;;;5028288;28;20037;-85
2021/12/06 11:21:49;;;;;;;38.30;15.65;;;2.80;99.90;;;;;;5021990;28;20029;-86
2021/12/06 11:24:27;;;;;;;35.08;15.05;;;2.80;99.90;;;;;;5008684;28;20033;-86
2021/12/06 11:26:58;;;;;;;37.65;16.02;;;2.90;99.90;;;;;;5008620;28;20046;-86
2021/12/06 11:29:26;;;;;;;32.95;16.00;;;2.80;99.90;;;;;;5009031;28;20038;-85
2021/12/06 11:31:57;;;;;;;33.78;15.68;;;2.80;99.90;;;;;;5008638;28;20037;-86
2021/12/06 11:34:29;;;;;;;38.25;17.02;;;2.90;99.90;;;;;;5008416;28;20040;-86
2021/12/06 11:36:55;;;;;;;36.10;15.68;;;2.90;99.90;;;;;;5008425;28;20101;-85
2021/12/06 11:39:23;;;;;;;35.78;16.80;;;2.90;99.90;;;;;;5008366;28;20033;-86
2021/12/06 11:41:53;;;;;;;39.45;17.08;;;2.90;99.90;;;;;;5008580;28;20065;-85
2021/12/06 11:44:30;;;;;;;38.70;17.58;;;2.90;99.90;;;;;;5026039;28;20082;-86
2021/12/06 11:47:07;;;;;;;34.92;15.73;;;2.90;99.90;;;;;;5008446;28;20041;-85
2021/12/06 11:49:35;;;;;;;36.20;16.10;;;3.00;99.90;;;;;;5008316;28;20193;-86
2021/12/06 11:52:03;;;;;;;35.65;17.42;;;3.10;99.90;;;;;;5008522;28;20059;-86
2021/12/06 11:54:39;;;;;;;32.75;15.35;;;3.10;99.90;;;;;;5008129;28;20042;-86
2021/12/06 11:57:10;;;;;;;35.22;15.10;;;3.10;99.90;;;;;;5008176;28;20391;-86
2021/12/06 11:59:48;;;;;;;34.90;15.63;;;3.10;99.90;;;;;;4991974;28;20105;-85
2021/12/06 12:02:14;;;;;;;30.52;15.98;;;3.10;99.90;;;;;;5008255;28;20026;-86
2021/12/06 12:04:40;;;;;;;28.13;15.40;;;3.20;99.90;;;;;;5008415;28;20101;-86
2021/12/06 12:07:07;;;;;;;33.08;17.15;;;3.10;99.90;;;;;;5008166;28;20045;-87
2021/12/06 12:09:36;;;;;;;30.85;16.73;;;3.10;99.90;;;;;;5005512;28;20056;-86
2021/12/06 12:12:26;;;;;;;29.67;15.50;;;3.10;99.90;;;;;;5008094;28;20045;-85
2021/12/06 12:14:55;;;;;;;27.33;14.80;;;3.10;99.90;;;;;;5007842;28;20092;-85
2021/12/06 12:17:24;;;;;;;32.50;16.30;;;3.10;99.90;;;;;;5024266;28;20046;-85
2021/12/06 12:19:53;;;;;;;29.55;14.93;;;3.10;99.90;;;;;;5010671;28;20029;-85
2021/12/06 12:22:20;;;;;;;28.73;16.35;;;3.00;99.90;;;;;;5001264;28;20038;-85
2021/12/06 12:24:49;;;;;;;26.80;13.32;;;3.00;99.90;;;;;;5027194;28;20101;-85
2021/12/06 12:29:44;;;;;;;25.92;14.85;;;3.10;99.90;;;;;;5027477;28;20059;-86
2021/12/06 12:32:10;;;;;;;22.50;12.73;;;3.00;99.90;;;;;;4993023;28;20041;-86
2021/12/06 12:34:38;;;;;;;26.05;14.38;;;3.10;99.90;;;;;;5014914;28;20129;-85
2021/12/06 12:37:07;;;;;;;22.85;12.07;;;3.20;99.90;;;;;;5007635;28;20030;-85
2021/12/06 12:39:33;;;;;;;25.48;12.88;;;3.10;99.90;;;;;;5007127;28;20037;-86
2021/12/06 12:42:03;;;;;;;32.25;14.50;;;3.00;99.90;;;;;;5007338;28;20041;-86
2021/12/06 12:44:43;;;;;;;27.45;14.65;;;3.00;99.90;;;;;;5007793;28;20030;-87
2021/12/06 12:47:16;;;;;;;29.08;13.52;;;2.90;99.90;;;;;;5007527;28;20034;-86
2021/12/06 12:50:14;;;;;;;24.42;13.38;;;2.90;99.90;;;;;;5007619;28;20033;-86
2021/12/06 12:52:40;;;;;;;31.98;15.48;;;2.90;99.90;;;;;;5002487;28;20130;-86
2021/12/06 12:55:18;;;;;;;31.48;14.93;;;2.80;99.90;;;;;;5007426;28;20046;-86
2021/12/06 12:57:43;;;;;;;25.02;13.02;;;2.90;99.90;;;;;;5007717;28;20030;-86